Tiempo atmosférico en la estación meteorológica de Artà-Colònia de Sant Pere, Illes Balears (100 m.)



Fecha
DESCASC
Temp. máxima en grados centígrados (hora)
DESCASC
Temp. mínima en grados centígrados (hora)
DESCASC
Temp. media en grados centígrados
DESCASC
Racha de viento máxima en m/sg (hora)
DESCASC
Velocidad máxima media en intervalos de 10 minutos(hora)
DESCASC
Precipitaciones diarias en mm
DESCASC
Precipitaciones de 00:00 a 06:00 en mm
DESCASC
Precipitaciones de 06:00 a 12:00 en mm
DESCASC
Precipitaciones de 12:00 a 18:00 en mm
DESCASC
Precipitaciones de 18:00 a 24:00 en mm
DESCASC
17-01-2020 17.8 (15:20) 11.4 (00:00) 14.6 -- (--) -- (--) 0 0 0 0 0
16-01-2020 16.5 (14:40) 7.8 (00:00) 12.2 -- (--) -- (--) 0 0 0 0 0
23-01-2020 16.2 (13:10) 9.9 (00:00) 13.1 -- (--) -- (--) 0.2 0.2 0 0 0
18-01-2020 16.1 (15:40) 8.5 (00:00) 12.3 -- (--) -- (--) 0 0 0 0 0
22-01-2020 16.1 (14:20) 10.6 (00:00) 13.4 -- (--) -- (--) 0.8 0 0 0 0.8
27-12-2019 16 (12:50) 10.4 (00:00) 13.2 -- (--) -- (--) 0 0 0 0 0
05-01-2020 16 (13:30) 8.4 (00:00) 12.2 -- (--) -- (--) 0 0 0 0 0
25-01-2020 16 (14:40) 9.2 (00:00) 12.6 -- (--) -- (--) 0 0 0 0 0
15-01-2020 15.7 (13:20) 8.9 (00:00) 12.3 -- (--) -- (--) 0 0 0 0 0
02-01-2020 15.6 (14:10) 10 (00:00) 12.8 -- (--) -- (--) 0 0 0 0 0
13-01-2020 15.4 (15:30) 7.2 (00:00) 11.3 -- (--) -- (--) 0 0 0 0 0
14-01-2020 15.3 (14:10) 10.9 (00:00) 13.1 -- (--) -- (--) 0 0 0 0 0
04-01-2020 15.1 (13:00) 9 (00:00) 12.1 -- (--) -- (--) 0 0 0 0 0
03-01-2020 14.8 (14:50) 10 (00:00) 12.4 -- (--) -- (--) 0 0 0 0 0
30-12-2019 14.8 (14:10) 8 (00:00) 11.4 -- (--) -- (--) 0 0 0 0 0
24-01-2020 14.7 (14:00) 9 (00:00) 11.8 -- (--) -- (--) 0 0 0 0 0
21-01-2020 14.7 (10:40) 13 (00:00) 13.8 -- (--) -- (--) 7 0 0.4 6.6 0
28-12-2019 14.7 (14:20) 9.7 (00:00) 12.2 -- (--) -- (--) 0 0 0 0 0
07-01-2020 14.4 (13:20) 9.7 (00:00) 12 -- (--) -- (--) 0 0 0 0 0
31-12-2019 14.4 (13:30) 8.5 (00:00) 11.4 -- (--) -- (--) 0 0 0 0 0
08-01-2020 14.3 (14:20) 9.4 (00:00) 11.8 -- (--) -- (--) 0 0 0 0 0
09-01-2020 14.1 (13:50) 8 (00:00) 11.1 -- (--) -- (--) 0 0 0 0 0
20-01-2020 13.8 (23:00) 9.2 (00:00) 11.5 -- (--) -- (--) 74 48.2 20 5.2 0.6
01-01-2020 13.8 (14:50) 8.2 (00:00) 11 -- (--) -- (--) 0 0 0 0 0
29-12-2019 13.8 (12:50) 10.1 (00:00) 12 -- (--) -- (--) 0 0 0 0 0
12-01-2020 13.3 (12:20) 7.4 (00:00) 10.4 -- (--) -- (--) 0 0 0 0 0
19-01-2020 12.9 (04:00) 9 (00:00) 10.9 -- (--) -- (--) 87 0 3.8 31.4 51.8
06-01-2020 12.8 (15:00) 8.7 (00:00) 10.8 -- (--) -- (--) 0 0 0 0 0
10-01-2020 12.7 (12:00) 7.9 (00:00) 10.3 -- (--) -- (--) 2.2 0 0 0.4 1.8
11-01-2020 12.1 (00:40) 10.6 (00:00) 11.4 -- (--) -- (--) 0 0 0 0 0

Gráficas

Temp. máximas Temp. mínimas Temp. medias Precipitaciones Rachas de viento máximas Velocidades máximas media en intervalos de 10 minutos

Datos horarios

Fecha y hora oficial Temperatura (ºC) Velocidad del viento (km/h) Dirección del viento Racha (km/h) Dirección de racha Precipitación (mm) Presión (hPa) Tendencia (hPa) Humedad (%)
2020-01-25 23:00:00 13.4 -- -- -- -- 0 -- -- 88
2020-01-25 22:00:00 13.2 -- -- -- -- 0 -- -- 90
2020-01-25 21:00:00 13.2 -- -- -- -- 0 -- -- 89
2020-01-25 20:00:00 13.5 -- -- -- -- 0 -- -- 89
2020-01-25 19:00:00 13.5 -- -- -- -- 0 -- -- 87
2020-01-25 18:00:00 13.7 -- -- -- -- 0 -- -- 87
2020-01-25 17:00:00 14.6 -- -- -- -- 0 -- -- 80
2020-01-25 16:00:00 15.9 -- -- -- -- 0 -- -- 74
2020-01-25 15:00:00 15.9 -- -- -- -- 0 -- -- 75
2020-01-25 14:00:00 15.6 -- -- -- -- 0 -- -- 76
2020-01-25 13:00:00 14.9 -- -- -- -- 0 -- -- 81
2020-01-25 12:00:00 14.4 -- -- -- -- 0 -- -- 83
2020-01-25 11:00:00 13.6 -- -- -- -- 0 -- -- 87
2020-01-25 10:00:00 12.4 -- -- -- -- 0 -- -- 91
2020-01-25 09:00:00 11.9 -- -- -- -- 0 -- -- 93
2020-01-25 08:00:00 10.9 -- -- -- -- 0 -- -- 92
2020-01-25 07:00:00 10.8 -- -- -- -- 0 -- -- 93
2020-01-25 06:00:00 11.7 -- -- -- -- 0 -- -- 91
2020-01-25 05:00:00 11.1 -- -- -- -- 0 -- -- 94
2020-01-25 04:00:00 10.7 -- -- -- -- 0 -- -- 91
2020-01-25 03:00:00 11.3 -- -- -- -- 0 -- -- 89
2020-01-25 02:00:00 10.6 -- -- -- -- 0 -- -- 94
2020-01-25 01:00:00 9.4 -- -- -- -- 0 -- -- 92
2020-01-25 00:00:00 9.3 -- -- -- -- 0 -- -- 88
2020-01-24 23:00:00 9.4 -- -- -- -- 0 -- -- 91
2020-01-24 22:00:00 10 -- -- -- -- 0 -- -- 90
2020-01-24 21:00:00 10.3 -- -- -- -- 0 -- -- 89
2020-01-24 20:00:00 10.4 -- -- -- -- 0 -- -- 89
2020-01-24 19:00:00 10.6 -- -- -- -- 0 -- -- 89
2020-01-24 18:00:00 11.6 -- -- -- -- 0 -- -- 84
2020-01-24 17:00:00 13 -- -- -- -- 0 -- -- 79
2020-01-24 16:00:00 14.3 -- -- -- -- 0 -- -- 72
2020-01-24 15:00:00 14.6 -- -- -- -- 0 -- -- 68
2020-01-24 14:00:00 14.7 -- -- -- -- 0 -- -- 73
2020-01-24 13:00:00 14.4 -- -- -- -- 0 -- -- 77
2020-01-24 12:00:00 13.3 -- -- -- -- 0 -- -- 95
2020-01-24 11:00:00 11.7 -- -- -- -- 0 -- -- 99
2020-01-24 10:00:00 10.1 -- -- -- -- 0 -- -- 98
2020-01-24 09:00:00 10.4 -- -- -- -- 0 -- -- 98
2020-01-24 08:00:00 10.4 -- -- -- -- 0 -- -- 98
2020-01-24 07:00:00 10.4 -- -- -- -- 0 -- -- 97
2020-01-24 06:00:00 10.4 -- -- -- -- 0 -- -- 97
2020-01-24 05:00:00 10 -- -- -- -- 0 -- -- 97
2020-01-24 04:00:00 9.8 -- -- -- -- 0 -- -- 96
2020-01-24 03:00:00 9.7 -- -- -- -- 0 -- -- 96
2020-01-24 02:00:00 9.6 -- -- -- -- 0 -- -- 95
2020-01-24 01:00:00 9.9 -- -- -- -- 0 -- -- 94
2020-01-24 00:00:00 10.1 -- -- -- -- 0 -- -- 93
2020-01-23 23:00:00 10.2 -- -- -- -- 0 -- -- 92
2020-01-23 22:00:00 10.2 -- -- -- -- 0 -- -- 90
2020-01-23 21:00:00 11.1 -- -- -- -- 0 -- -- 90
2020-01-23 20:00:00 10.9 -- -- -- -- 0 -- -- 90
2020-01-23 19:00:00 11.5 -- -- -- -- 0 -- -- 86
2020-01-23 18:00:00 12.6 -- -- -- -- 0 -- -- 83
2020-01-23 17:00:00 14.9 -- -- -- -- 0 -- -- 75
2020-01-23 16:00:00 15.8 -- -- -- -- 0 -- -- 73
2020-01-23 15:00:00 15.2 -- -- -- -- 0 -- -- 72
2020-01-23 14:00:00 15.4 -- -- -- -- 0 -- -- 73
2020-01-23 13:00:00 16 -- -- -- -- 0 -- -- 68
2020-01-23 12:00:00 14.8 -- -- -- -- 0 -- -- 74
2020-01-23 11:00:00 12.9 -- -- -- -- 0 -- -- 83
2020-01-23 10:00:00 11.3 -- -- -- -- 0 -- -- 88
2020-01-23 09:00:00 11.7 -- -- -- -- 0 -- -- 84
2020-01-23 08:00:00 11.9 -- -- -- -- 0 -- -- 83
2020-01-23 07:00:00 11.7 -- -- -- -- 0 -- -- 81
2020-01-23 06:00:00 11.6 -- -- -- -- 0.2 -- -- 80
2020-01-23 05:00:00 12.3 -- -- -- -- 0 -- -- 76
2020-01-23 04:00:00 13.5 -- -- -- -- 0 -- -- 74
2020-01-23 03:00:00 13.8 -- -- -- -- 0 -- -- 73
2020-01-23 02:00:00 13.4 -- -- -- -- 0 -- -- 81
2020-01-23 01:00:00 14.4 -- -- -- -- 0 -- -- 89
2020-01-23 00:00:00 14.4 -- -- -- -- 0.8 -- -- 89
2020-01-22 23:00:00 14.9 -- -- -- -- 0 -- -- 85
2020-01-22 22:00:00 14.7 -- -- -- -- 0 -- -- 85
2020-01-22 21:00:00 14.4 -- -- -- -- 0 -- -- 87
2020-01-22 20:00:00 14.4 -- -- -- -- 0 -- -- 86
2020-01-22 19:00:00 14.5 -- -- -- -- 0 -- -- 86
2020-01-22 18:00:00 14.5 -- -- -- -- 0 -- -- 86
2020-01-22 17:00:00 15 -- -- -- -- 0 -- -- 84
2020-01-22 16:00:00 15.5 -- -- -- -- 0 -- -- 84
2020-01-22 15:00:00 16 -- -- -- -- 0 -- -- 81
2020-01-22 14:00:00 15.9 -- -- -- -- 0 -- -- 82
2020-01-22 13:00:00 15.7 -- -- -- -- 0 -- -- 80
2020-01-22 12:00:00 15.3 -- -- -- -- 0 -- -- 84
2020-01-22 11:00:00 14.9 -- -- -- -- 0 -- -- 86
2020-01-22 10:00:00 14.5 -- -- -- -- 0 -- -- 87
2020-01-22 09:00:00 14.1 -- -- -- -- 0 -- -- 88
2020-01-22 08:00:00 11.9 -- -- -- -- 0 -- -- 94
2020-01-22 07:00:00 12.2 -- -- -- -- 0 -- -- 94
2020-01-22 06:00:00 12.4 -- -- -- -- 0 -- -- 92
2020-01-22 05:00:00 11.6 -- -- -- -- 0 -- -- 92
2020-01-22 04:00:00 11.3 -- -- -- -- 0 -- -- 94
2020-01-22 03:00:00 11.8 -- -- -- -- 0 -- -- 94
2020-01-22 02:00:00 13.1 -- -- -- -- 0 -- -- 89
2020-01-22 01:00:00 14.1 -- -- -- -- 0 -- -- 89
2020-01-22 00:00:00 14.5 -- -- -- -- 0 -- -- 88
2020-01-21 23:00:00 14.4 -- -- -- -- 0 -- -- 89
2020-01-21 22:00:00 14.3 -- -- -- -- 0 -- -- 89
2020-01-21 21:00:00 14.2 -- -- -- -- 0 -- -- 88
2020-01-21 20:00:00 14.2 -- -- -- -- 0 -- -- 87
2020-01-21 19:00:00 14.3 -- -- -- -- 0 -- -- 87
2020-01-21 18:00:00 14 -- -- -- -- 0 -- -- 88
2020-01-21 17:00:00 13.7 -- -- -- -- 3.2 -- -- 90
2020-01-21 16:00:00 13.8 -- -- -- -- 2.8 -- -- 88
2020-01-21 15:00:00 14.2 -- -- -- -- 0.4 -- -- 83
2020-01-21 14:00:00 14.3 -- -- -- -- 0.2 -- -- 83
2020-01-21 13:00:00 14.7 -- -- -- -- 0 -- -- 80
2020-01-21 12:00:00 14.7 -- -- -- -- 0 -- -- 79
2020-01-21 11:00:00 14.7 -- -- -- -- 0 -- -- 80
2020-01-21 10:00:00 14.6 -- -- -- -- 0 -- -- 82
2020-01-21 09:00:00 14.4 -- -- -- -- 0 -- -- 81
2020-01-21 08:00:00 14.3 -- -- -- -- 0.2 -- -- 83
2020-01-21 07:00:00 14.1 -- -- -- -- 0.2 -- -- 85
2020-01-21 06:00:00 14.3 -- -- -- -- 0 -- -- 82
2020-01-21 05:00:00 14.3 -- -- -- -- 0 -- -- 82
2020-01-21 04:00:00 14.3 -- -- -- -- 0 -- -- 81
2020-01-21 03:00:00 14.4 -- -- -- -- 0 -- -- 81
2020-01-21 02:00:00 14.4 -- -- -- -- 0 -- -- 83
2020-01-21 01:00:00 14.4 -- -- -- -- 0 -- -- 84
2020-01-21 00:00:00 13.6 -- -- -- -- 0 -- -- 85
2020-01-20 23:00:00 13.8 -- -- -- -- 0.4 -- -- 86
2020-01-20 22:00:00 13.5 -- -- -- -- 0.2 -- -- 85
2020-01-20 21:00:00 13.3 -- -- -- -- 0 -- -- 85
2020-01-20 20:00:00 12.8 -- -- -- -- 0 -- -- 85
2020-01-20 19:00:00 12.6 -- -- -- -- 0 -- -- 88
2020-01-20 18:00:00 12.2 -- -- -- -- 0 -- -- 90
2020-01-20 17:00:00 12.6 -- -- -- -- 0 -- -- 90
2020-01-20 16:00:00 12 -- -- -- -- 5.2 -- -- 91
2020-01-20 15:00:00 12.6 -- -- -- -- 0 -- -- 87
2020-01-20 14:00:00 12.3 -- -- -- -- 0 -- -- 88
2020-01-20 13:00:00 12.7 -- -- -- -- 0 -- -- 86
2020-01-20 12:00:00 12 -- -- -- -- 3.2 -- -- 92
2020-01-20 11:00:00 11.3 -- -- -- -- 1 -- -- 96
2020-01-20 10:00:00 11.1 -- -- -- -- 3.8 -- -- 96
2020-01-20 09:00:00 10.7 -- -- -- -- 1 -- -- 97
2020-01-20 08:00:00 10.6 -- -- -- -- 3.8 -- -- 98
2020-01-20 07:00:00 10.3 -- -- -- -- 7.2 -- -- 98
2020-01-20 06:00:00 9.9 -- -- -- -- 8 -- -- 98
2020-01-20 05:00:00 10 -- -- -- -- 16 -- -- 98
2020-01-20 04:00:00 9.7 -- -- -- -- 6.4 -- -- 98
2020-01-20 03:00:00 9.8 -- -- -- -- 6.4 -- -- 98
2020-01-20 02:00:00 9.8 -- -- -- -- 6.2 -- -- 98
2020-01-20 01:00:00 9.9 -- -- -- -- 5.2 -- -- 98
2020-01-20 00:00:00 9.6 -- -- -- -- 10.6 -- -- 98
2020-01-19 23:00:00 10 -- -- -- -- 16.2 -- -- 98
2020-01-19 22:00:00 9.5 -- -- -- -- 7.2 -- -- 97
2020-01-19 21:00:00 9.2 -- -- -- -- 6 -- -- 97
2020-01-19 20:00:00 9.2 -- -- -- -- 6.6 -- -- 96
2020-01-19 19:00:00 9.3 -- -- -- -- 5.2 -- -- 96
2020-01-19 18:00:00 9.2 -- -- -- -- 12.4 -- -- 96
2020-01-19 17:00:00 10.1 -- -- -- -- 6 -- -- 96
2020-01-19 16:00:00 10.4 -- -- -- -- 7 -- -- 96
2020-01-19 15:00:00 10.7 -- -- -- -- 4.8 -- -- 94
2020-01-19 14:00:00 11.8 -- -- -- -- 0 -- -- 92
2020-01-19 13:00:00 11.7 -- -- -- -- 1.2 -- -- 92
2020-01-19 12:00:00 11.7 -- -- -- -- 2 -- -- 92
2020-01-19 11:00:00 12 -- -- -- -- 1.4 -- -- 91
2020-01-19 10:00:00 12.5 -- -- -- -- 0.4 -- -- 87
2020-01-19 09:00:00 12.6 -- -- -- -- 0 -- -- 86
2020-01-19 08:00:00 12.4 -- -- -- -- 0 -- -- 87
2020-01-19 07:00:00 12.6 -- -- -- -- 0 -- -- 88
2020-01-19 06:00:00 12.7 -- -- -- -- 0 -- -- 85
2020-01-19 05:00:00 12.8 -- -- -- -- 0 -- -- 85
2020-01-19 04:00:00 12.9 -- -- -- -- 0 -- -- 85
2020-01-19 03:00:00 12.7 -- -- -- -- 0 -- -- 84
2020-01-19 02:00:00 12.6 -- -- -- -- 0 -- -- 80
2020-01-19 01:00:00 12.7 -- -- -- -- 0 -- -- 83
2020-01-19 00:00:00 12.6 -- -- -- -- 0 -- -- 84
2020-01-18 23:00:00 12.2 -- -- -- -- 0 -- -- 86
2020-01-18 22:00:00 11.9 -- -- -- -- 0 -- -- 86
2020-01-18 21:00:00 12 -- -- -- -- 0 -- -- 85
2020-01-18 20:00:00 12.1 -- -- -- -- 0 -- -- 83
2020-01-18 19:00:00 12.1 -- -- -- -- 0 -- -- 67
2020-01-18 18:00:00 13 -- -- -- -- 0 -- -- 63
2020-01-18 17:00:00 14.9 -- -- -- -- 0 -- -- 64
2020-01-18 16:00:00 16.1 -- -- -- -- 0 -- -- 57
2020-01-18 15:00:00 15.7 -- -- -- -- 0 -- -- 59
2020-01-18 14:00:00 15.1 -- -- -- -- 0 -- -- 68
2020-01-18 13:00:00 14 -- -- -- -- 0 -- -- 79
2020-01-18 12:00:00 12.7 -- -- -- -- 0 -- -- 84
2020-01-18 11:00:00 13 -- -- -- -- 0 -- -- 81
2020-01-18 10:00:00 12.2 -- -- -- -- 0 -- -- 80
2020-01-18 09:00:00 11.9 -- -- -- -- 0 -- -- 81
2020-01-18 08:00:00 11.5 -- -- -- -- 0 -- -- 82
2020-01-18 07:00:00 11 -- -- -- -- 0 -- -- 86
2020-01-18 06:00:00 8.5 -- -- -- -- 0 -- -- 87
2020-01-18 05:00:00 9.9 -- -- -- -- 0 -- -- 82
2020-01-18 04:00:00 9.6 -- -- -- -- 0 -- -- 82
2020-01-18 03:00:00 10.6 -- -- -- -- 0 -- -- 80
2020-01-18 02:00:00 10.5 -- -- -- -- 0 -- -- 78
2020-01-18 01:00:00 11.4 -- -- -- -- 0 -- -- 76
2020-01-18 00:00:00 11.4 -- -- -- -- 0 -- -- 77
2020-01-17 23:00:00 12.2 -- -- -- -- 0 -- -- 76
2020-01-17 22:00:00 11.9 -- -- -- -- 0 -- -- 59
2020-01-17 21:00:00 12.5 -- -- -- -- 0 -- -- 57
2020-01-17 20:00:00 13 -- -- -- -- 0 -- -- 58
2020-01-17 19:00:00 13.6 -- -- -- -- 0 -- -- 60
2020-01-17 18:00:00 14.1 -- -- -- -- 0 -- -- 56
2020-01-17 17:00:00 15.8 -- -- -- -- 0 -- -- 53
2020-01-17 16:00:00 17.2 -- -- -- -- 0 -- -- 52
2020-01-17 15:00:00 17.5 -- -- -- -- 0 -- -- 52
2020-01-17 14:00:00 16.9 -- -- -- -- 0 -- -- 54
2020-01-17 13:00:00 16.5 -- -- -- -- 0 -- -- 61
2020-01-17 12:00:00 15.6 -- -- -- -- 0 -- -- 73
2020-01-17 11:00:00 13.9 -- -- -- -- 0 -- -- 85
2020-01-17 10:00:00 12.5 -- -- -- -- 0 -- -- 89
2020-01-17 09:00:00 12.4 -- -- -- -- 0 -- -- 88
2020-01-17 08:00:00 12.4 -- -- -- -- 0 -- -- 87
2020-01-17 07:00:00 12.3 -- -- -- -- 0 -- -- 86
2020-01-17 06:00:00 12.2 -- -- -- -- 0 -- -- 87
2020-01-17 05:00:00 12.1 -- -- -- -- 0 -- -- 88
2020-01-17 04:00:00 12.1 -- -- -- -- 0 -- -- 87
2020-01-17 03:00:00 12 -- -- -- -- 0 -- -- 87
2020-01-17 02:00:00 11.8 -- -- -- -- 0 -- -- 86
2020-01-17 01:00:00 12 -- -- -- -- 0 -- -- 86
2020-01-17 00:00:00 12.2 -- -- -- -- 0 -- -- 87
2020-01-16 23:00:00 12.2 -- -- -- -- 0 -- -- 88
2020-01-16 22:00:00 12.3 -- -- -- -- 0 -- -- 87
2020-01-16 21:00:00 12.3 -- -- -- -- 0 -- -- 87
2020-01-16 20:00:00 12.4 -- -- -- -- 0 -- -- 85
2020-01-16 19:00:00 12.9 -- -- -- -- 0 -- -- 82
2020-01-16 18:00:00 13.3 -- -- -- -- 0 -- -- 80
2020-01-16 17:00:00 14.8 -- -- -- -- 0 -- -- 73
2020-01-16 16:00:00 15.7 -- -- -- -- 0 -- -- 69
2020-01-16 15:00:00 16.2 -- -- -- -- 0 -- -- 65
2020-01-16 14:00:00 15.9 -- -- -- -- 0 -- -- 66
2020-01-16 13:00:00 15.9 -- -- -- -- 0 -- -- 57
2020-01-16 12:00:00 14.1 -- -- -- -- 0 -- -- 69
2020-01-16 11:00:00 11.8 -- -- -- -- 0 -- -- 86
2020-01-16 10:00:00 9.1 -- -- -- -- 0 -- -- 84
2020-01-16 09:00:00 8.6 -- -- -- -- 0 -- -- 90
2020-01-16 08:00:00 8.4 -- -- -- -- 0 -- -- 92
2020-01-16 07:00:00 8.2 -- -- -- -- 0 -- -- 89
2020-01-16 06:00:00 8.9 -- -- -- -- 0 -- -- 89
2020-01-16 05:00:00 8.3 -- -- -- -- 0 -- -- 92
2020-01-16 04:00:00 7.8 -- -- -- -- 0 -- -- 91
2020-01-16 03:00:00 9.3 -- -- -- -- 0 -- -- 89
2020-01-16 02:00:00 10.2 -- -- -- -- 0 -- -- 85
2020-01-16 01:00:00 10.4 -- -- -- -- 0 -- -- 88
2020-01-16 00:00:00 10.1 -- -- -- -- 0 -- -- 85
2020-01-15 23:00:00 10 -- -- -- -- 0 -- -- 83
2020-01-15 22:00:00 9.2 -- -- -- -- 0 -- -- 86
2020-01-15 21:00:00 9.8 -- -- -- -- 0 -- -- 82
2020-01-15 20:00:00 10.6 -- -- -- -- 0 -- -- 79
2020-01-15 19:00:00 11.5 -- -- -- -- 0 -- -- 74
2020-01-15 18:00:00 12.2 -- -- -- -- 0 -- -- 71
2020-01-15 17:00:00 13.6 -- -- -- -- 0 -- -- 70
2020-01-15 16:00:00 14.5 -- -- -- -- 0 -- -- 63
2020-01-15 15:00:00 15.5 -- -- -- -- 0 -- -- 58
2020-01-15 14:00:00 15.5 -- -- -- -- 0 -- -- 61
2020-01-15 13:00:00 15.6 -- -- -- -- 0 -- -- 59
2020-01-15 12:00:00 15.3 -- -- -- -- 0 -- -- 70
2020-01-15 11:00:00 14.1 -- -- -- -- 0 -- -- 77
2020-01-15 10:00:00 13 -- -- -- -- 0 -- -- 82
2020-01-15 09:00:00 12.5 -- -- -- -- 0 -- -- 79
2020-01-15 08:00:00 12.3 -- -- -- -- 0 -- -- 77
2020-01-15 07:00:00 12.2 -- -- -- -- 0 -- -- 74
2020-01-15 06:00:00 12.1 -- -- -- -- 0 -- -- 77
2020-01-15 05:00:00 12.5 -- -- -- -- 0 -- -- 74
2020-01-15 04:00:00 12.4 -- -- -- -- 0 -- -- 73
2020-01-15 03:00:00 12 -- -- -- -- 0 -- -- 71
2020-01-15 02:00:00 12.2 -- -- -- -- 0 -- -- 71
2020-01-15 01:00:00 11.8 -- -- -- -- 0 -- -- 73
2020-01-15 00:00:00 11.6 -- -- -- -- 0 -- -- 74
2020-01-14 23:00:00 11.7 -- -- -- -- 0 -- -- 72
2020-01-14 22:00:00 11.6 -- -- -- -- 0 -- -- 67
2020-01-14 21:00:00 11.6 -- -- -- -- 0 -- -- 69
2020-01-14 20:00:00 11.6 -- -- -- -- 0 -- -- 71
2020-01-14 19:00:00 11.8 -- -- -- -- 0 -- -- 70
2020-01-14 18:00:00 12.1 -- -- -- -- 0 -- -- 68
2020-01-14 17:00:00 13.6 -- -- -- -- 0 -- -- 62
2020-01-14 16:00:00 14.4 -- -- -- -- 0 -- -- 59
2020-01-14 15:00:00 15.1 -- -- -- -- 0 -- -- 58
2020-01-14 14:00:00 15.2 -- -- -- -- 0 -- -- 59
2020-01-14 13:00:00 14.3 -- -- -- -- 0 -- -- 61
2020-01-14 12:00:00 13.9 -- -- -- -- 0 -- -- 65
2020-01-14 11:00:00 13 -- -- -- -- 0 -- -- 71
2020-01-14 10:00:00 11.9 -- -- -- -- 0 -- -- 73
2020-01-14 09:00:00 11.5 -- -- -- -- 0 -- -- 73
2020-01-14 08:00:00 11.4 -- -- -- -- 0 -- -- 73
2020-01-14 07:00:00 11 -- -- -- -- 0 -- -- 75
2020-01-14 06:00:00 11 -- -- -- -- 0 -- -- 76
2020-01-14 05:00:00 10.9 -- -- -- -- 0 -- -- 76
2020-01-14 04:00:00 11 -- -- -- -- 0 -- -- 74
2020-01-14 03:00:00 11.1 -- -- -- -- 0 -- -- 73
2020-01-14 02:00:00 11.2 -- -- -- -- 0 -- -- 74
2020-01-14 01:00:00 11.2 -- -- -- -- 0 -- -- 75
2020-01-14 00:00:00 11.2 -- -- -- -- 0 -- -- 74
2020-01-13 23:00:00 10.9 -- -- -- -- 0 -- -- 79
2020-01-13 22:00:00 10.9 -- -- -- -- 0 -- -- 79
2020-01-13 21:00:00 10.7 -- -- -- -- 0 -- -- 76
2020-01-13 20:00:00 10.7 -- -- -- -- 0 -- -- 77
2020-01-13 19:00:00 10.7 -- -- -- -- 0 -- -- 76
2020-01-13 18:00:00 11.2 -- -- -- -- 0 -- -- 73
2020-01-13 17:00:00 13.6 -- -- -- -- 0 -- -- 66
2020-01-13 16:00:00 15.3 -- -- -- -- 0 -- -- 58
2020-01-13 15:00:00 15.2 -- -- -- -- 0 -- -- 59
2020-01-13 14:00:00 15.1 -- -- -- -- 0 -- -- 62
2020-01-13 13:00:00 14 -- -- -- -- 0 -- -- 71
2020-01-13 12:00:00 12.6 -- -- -- -- 0 -- -- 76
2020-01-13 11:00:00 10.5 -- -- -- -- 0 -- -- 85
2020-01-13 10:00:00 8.6 -- -- -- -- 0 -- -- 89
2020-01-13 09:00:00 8 -- -- -- -- 0 -- -- 89
2020-01-13 08:00:00 8.1 -- -- -- -- 0 -- -- 86
2020-01-13 07:00:00 8.5 -- -- -- -- 0 -- -- 87
2020-01-13 06:00:00 8.4 -- -- -- -- 0 -- -- 88
2020-01-13 05:00:00 8.4 -- -- -- -- 0 -- -- 86
2020-01-13 04:00:00 8.4 -- -- -- -- 0 -- -- 85
2020-01-13 03:00:00 8.2 -- -- -- -- 0 -- -- 85
2020-01-13 02:00:00 8.3 -- -- -- -- 0 -- -- 85
2020-01-13 01:00:00 7.3 -- -- -- -- 0 -- -- 90
2020-01-13 00:00:00 7.4 -- -- -- -- 0 -- -- 90
2020-01-12 23:00:00 7.8 -- -- -- -- 0 -- -- 88
2020-01-12 22:00:00 8.7 -- -- -- -- 0 -- -- 86
2020-01-12 21:00:00 9.8 -- -- -- -- 0 -- -- 83
2020-01-12 20:00:00 10 -- -- -- -- 0 -- -- 81
2020-01-12 19:00:00 10.4 -- -- -- -- 0 -- -- 76
2020-01-12 18:00:00 10.8 -- -- -- -- 0 -- -- 77
2020-01-12 17:00:00 11.9 -- -- -- -- 0 -- -- 73
2020-01-12 16:00:00 12.3 -- -- -- -- 0 -- -- 72
2020-01-12 15:00:00 12.4 -- -- -- -- 0 -- -- 70
2020-01-12 14:00:00 12.7 -- -- -- -- 0 -- -- 68
2020-01-12 13:00:00 12.9 -- -- -- -- 0 -- -- 67
2020-01-12 12:00:00 12.7 -- -- -- -- 0 -- -- 66
2020-01-12 11:00:00 12.3 -- -- -- -- 0 -- -- 68
2020-01-12 10:00:00 11 -- -- -- -- 0 -- -- 72
2020-01-12 09:00:00 11 -- -- -- -- 0 -- -- 73
2020-01-12 08:00:00 11.1 -- -- -- -- 0 -- -- 70
2020-01-12 07:00:00 11.1 -- -- -- -- 0 -- -- 68
2020-01-12 06:00:00 11 -- -- -- -- 0 -- -- 68
2020-01-12 05:00:00 11.1 -- -- -- -- 0 -- -- 69
2020-01-12 04:00:00 11.3 -- -- -- -- 0 -- -- 70
2020-01-12 03:00:00 11.2 -- -- -- -- 0 -- -- 70
2020-01-12 02:00:00 11.1 -- -- -- -- 0 -- -- 71
2020-01-12 01:00:00 10.9 -- -- -- -- 0 -- -- 71
2020-01-12 00:00:00 10.7 -- -- -- -- 0 -- -- 69
2020-01-11 23:00:00 10.9 -- -- -- -- 0 -- -- 71
2020-01-11 22:00:00 11.3 -- -- -- -- 0 -- -- 74
2020-01-11 21:00:00 11.4 -- -- -- -- 0 -- -- 73
2020-01-11 20:00:00 11.3 -- -- -- -- 0 -- -- 72
2020-01-11 19:00:00 10.9 -- -- -- -- 0 -- -- 72
2020-01-11 18:00:00 10.8 -- -- -- -- 0 -- -- 73
2020-01-11 17:00:00 10.9 -- -- -- -- 0 -- -- 72
2020-01-11 16:00:00 11.3 -- -- -- -- 0 -- -- 70
2020-01-11 15:00:00 11.8 -- -- -- -- 0 -- -- 71
2020-01-11 14:00:00 12 -- -- -- -- 0 -- -- 67
2020-01-11 13:00:00 12.1 -- -- -- -- 0 -- -- 67
2020-01-11 12:00:00 12 -- -- -- -- 0 -- -- 69
2020-01-11 11:00:00 11.2 -- -- -- -- 0 -- -- 70
2020-01-11 10:00:00 11.2 -- -- -- -- 0 -- -- 69
2020-01-11 09:00:00 11.2 -- -- -- -- 0 -- -- 72
2020-01-11 08:00:00 11.3 -- -- -- -- 0 -- -- 74
2020-01-11 07:00:00 11.6 -- -- -- -- 0 -- -- 74
2020-01-11 06:00:00 11.7 -- -- -- -- 0 -- -- 73
2020-01-11 05:00:00 11.6 -- -- -- -- 0 -- -- 74
2020-01-11 04:00:00 12 -- -- -- -- 0 -- -- 76
2020-01-11 03:00:00 12 -- -- -- -- 0 -- -- 78
2020-01-11 02:00:00 12 -- -- -- -- 0 -- -- 76
2020-01-11 01:00:00 12.1 -- -- -- -- 0 -- -- 76
2020-01-11 00:00:00 12 -- -- -- -- 0 -- -- 75
2020-01-10 23:00:00 11.9 -- -- -- -- 1.8 -- -- 76
2020-01-10 22:00:00 12.6 -- -- -- -- 0 -- -- 73
2020-01-10 21:00:00 12.4 -- -- -- -- 0 -- -- 75
2020-01-10 20:00:00 12.5 -- -- -- -- 0 -- -- 73
2020-01-10 19:00:00 12.4 -- -- -- -- 0 -- -- 73
2020-01-10 18:00:00 12.3 -- -- -- -- 0 -- -- 76
2020-01-10 17:00:00 12.1 -- -- -- -- 0.2 -- -- 80
2020-01-10 16:00:00 12.3 -- -- -- -- 0.2 -- -- 80
2020-01-10 15:00:00 12.4 -- -- -- -- 0 -- -- 77
2020-01-10 14:00:00 12.3 -- -- -- -- 0 -- -- 80
2020-01-10 13:00:00 11.6 -- -- -- -- 0 -- -- 86
2020-01-10 12:00:00 12.7 -- -- -- -- 0 -- -- 81
2020-01-10 11:00:00 12.5 -- -- -- -- 0 -- -- 87
2020-01-10 10:00:00 10.2 -- -- -- -- 0 -- -- 94
2020-01-10 09:00:00 9 -- -- -- -- 0 -- -- 94
2020-01-10 08:00:00 8 -- -- -- -- 0 -- -- 93
2020-01-10 07:00:00 8.8 -- -- -- -- 0 -- -- 94
2020-01-10 06:00:00 8.9 -- -- -- -- 0 -- -- 93
2020-01-10 05:00:00 9.6 -- -- -- -- 0 -- -- 95
2020-01-10 04:00:00 8.7 -- -- -- -- 0 -- -- 93
2020-01-10 03:00:00 8.7 -- -- -- -- 0 -- -- 91
2020-01-10 02:00:00 11.1 -- -- -- -- 0 -- -- 84
2020-01-10 01:00:00 11.7 -- -- -- -- 0 -- -- 83
2020-01-10 00:00:00 11 -- -- -- -- 0 -- -- 85
2020-01-09 23:00:00 11.2 -- -- -- -- 0 -- -- 83
2020-01-09 22:00:00 11.7 -- -- -- -- 0 -- -- 82
2020-01-09 21:00:00 12.2 -- -- -- -- 0 -- -- 80
2020-01-09 20:00:00 12.5 -- -- -- -- 0 -- -- 78
2020-01-09 19:00:00 12.5 -- -- -- -- 0 -- -- 80
2020-01-09 18:00:00 12.5 -- -- -- -- 0 -- -- 81
2020-01-09 17:00:00 13.1 -- -- -- -- 0 -- -- 77
2020-01-09 16:00:00 13.2 -- -- -- -- 0 -- -- 84
2020-01-09 15:00:00 13.1 -- -- -- -- 0 -- -- 84
2020-01-09 14:00:00 13.9 -- -- -- -- 0 -- -- 81
2020-01-09 13:00:00 12.8 -- -- -- -- 0 -- -- 84
2020-01-09 12:00:00 12.2 -- -- -- -- 0 -- -- 86
2020-01-09 11:00:00 10.5 -- -- -- -- 0 -- -- 94
2020-01-09 10:00:00 8.6 -- -- -- -- 0 -- -- 94
2020-01-09 09:00:00 8.3 -- -- -- -- 0 -- -- 94
2020-01-09 08:00:00 8.2 -- -- -- -- 0 -- -- 92
2020-01-09 07:00:00 8.5 -- -- -- -- 0 -- -- 89
2020-01-09 06:00:00 9.3 -- -- -- -- 0 -- -- 88
2020-01-09 05:00:00 8.8 -- -- -- -- 0 -- -- 91
2020-01-09 04:00:00 8.7 -- -- -- -- 0 -- -- 90
2020-01-09 03:00:00 9.5 -- -- -- -- 0 -- -- 92
2020-01-09 02:00:00 8.9 -- -- -- -- 0 -- -- 90
2020-01-09 01:00:00 9.7 -- -- -- -- 0 -- -- 88
2020-01-09 00:00:00 10.3 -- -- -- -- 0 -- -- 88
2020-01-08 23:00:00 10 -- -- -- -- 0 -- -- 87
2020-01-08 22:00:00 10.6 -- -- -- -- 0 -- -- 83
2020-01-08 21:00:00 10.8 -- -- -- -- 0 -- -- 85
2020-01-08 20:00:00 10.6 -- -- -- -- 0 -- -- 81
2020-01-08 19:00:00 11 -- -- -- -- 0 -- -- 80
2020-01-08 18:00:00 12.5 -- -- -- -- 0 -- -- 75
2020-01-08 17:00:00 12.9 -- -- -- -- 0 -- -- 75
2020-01-08 16:00:00 13.4 -- -- -- -- 0 -- -- 80
2020-01-08 15:00:00 14 -- -- -- -- 0 -- -- 77
2020-01-08 14:00:00 14 -- -- -- -- 0 -- -- 80
2020-01-08 13:00:00 13.5 -- -- -- -- 0 -- -- 81
2020-01-08 12:00:00 13.6 -- -- -- -- 0 -- -- 78
2020-01-08 11:00:00 12.9 -- -- -- -- 0 -- -- 81
2020-01-08 10:00:00 12.6 -- -- -- -- 0 -- -- 80
2020-01-08 09:00:00 12.1 -- -- -- -- 0 -- -- 81
2020-01-08 08:00:00 11.5 -- -- -- -- 0 -- -- 88
2020-01-08 07:00:00 11 -- -- -- -- 0 -- -- 89
2020-01-08 06:00:00 10.3 -- -- -- -- 0 -- -- 84
2020-01-08 05:00:00 11.4 -- -- -- -- 0 -- -- 78
2020-01-08 04:00:00 9.5 -- -- -- -- 0 -- -- 88
2020-01-08 03:00:00 10 -- -- -- -- 0 -- -- 82
2020-01-08 02:00:00 9.7 -- -- -- -- 0 -- -- 81
2020-01-08 01:00:00 9.6 -- -- -- -- 0 -- -- 90
2020-01-08 00:00:00 10.3 -- -- -- -- 0 -- -- 89
2020-01-07 23:00:00 10.3 -- -- -- -- 0 -- -- 89
2020-01-07 22:00:00 10.5 -- -- -- -- 0 -- -- 91
2020-01-07 21:00:00 10.4 -- -- -- -- 0 -- -- 91
2020-01-07 20:00:00 10.4 -- -- -- -- 0 -- -- 91
2020-01-07 19:00:00 10.2 -- -- -- -- 0 -- -- 90
2020-01-07 18:00:00 11.1 -- -- -- -- 0 -- -- 85
2020-01-07 17:00:00 13 -- -- -- -- 0 -- -- 80
2020-01-07 16:00:00 13.8 -- -- -- -- 0 -- -- 78
2020-01-07 15:00:00 13.8 -- -- -- -- 0 -- -- 79
2020-01-07 14:00:00 14.3 -- -- -- -- 0 -- -- 78
2020-01-07 13:00:00 14.3 -- -- -- -- 0 -- -- 76
2020-01-07 12:00:00 13.9 -- -- -- -- 0 -- -- 79
2020-01-07 11:00:00 11.9 -- -- -- -- 0 -- -- 91
2020-01-07 10:00:00 10.7 -- -- -- -- 0 -- -- 92
2020-01-07 09:00:00 10.2 -- -- -- -- 0 -- -- 92
2020-01-07 08:00:00 10.1 -- -- -- -- 0 -- -- 90
2020-01-07 07:00:00 10.1 -- -- -- -- 0 -- -- 87
2020-01-07 06:00:00 10.3 -- -- -- -- 0 -- -- 89
2020-01-07 05:00:00 11.6 -- -- -- -- 0 -- -- 85
2020-01-07 04:00:00 12.5 -- -- -- -- 0 -- -- 83
2020-01-07 03:00:00 12.4 -- -- -- -- 0 -- -- 83
2020-01-07 02:00:00 11.8 -- -- -- -- 0 -- -- 85
2020-01-07 01:00:00 11.5 -- -- -- -- 0 -- -- 84
2020-01-07 00:00:00 11.6 -- -- -- -- 0 -- -- 84
2020-01-06 23:00:00 11.5 -- -- -- -- 0 -- -- 85
2020-01-06 22:00:00 11.8 -- -- -- -- 0 -- -- 83
2020-01-06 21:00:00 11.6 -- -- -- -- 0 -- -- 84
2020-01-06 20:00:00 11.7 -- -- -- -- 0 -- -- 82
2020-01-06 19:00:00 11.6 -- -- -- -- 0 -- -- 82
2020-01-06 18:00:00 11.8 -- -- -- -- 0 -- -- 82
2020-01-06 17:00:00 12.2 -- -- -- -- 0 -- -- 81
2020-01-06 16:00:00 12.4 -- -- -- -- 0 -- -- 81
2020-01-06 15:00:00 12.8 -- -- -- -- 0 -- -- 77
2020-01-06 14:00:00 12.6 -- -- -- -- 0 -- -- 77
2020-01-06 13:00:00 12.4 -- -- -- -- 0 -- -- 76
2020-01-06 12:00:00 12.2 -- -- -- -- 0 -- -- 76
2020-01-06 11:00:00 11.8 -- -- -- -- 0 -- -- 76
2020-01-06 10:00:00 11.3 -- -- -- -- 0 -- -- 78